sensor_id;sensor_type;location;lat;lon;timestamp;P1;durP1;ratioP1;P2;durP2;ratioP2
57057;SDS011;55017;52.848;6.748;2023-06-24T00:01:27;108.88;;;105.57;;
57057;SDS011;55017;52.848;6.748;2023-06-24T00:03:53;109.47;;;106.18;;
57057;SDS011;55017;52.848;6.748;2023-06-24T00:06:19;108.88;;;105.57;;
57057;SDS011;55017;52.848;6.748;2023-06-24T00:08:46;109.57;;;106.25;;
57057;SDS011;55017;52.848;6.748;2023-06-24T00:11:15;114.25;;;110.85;;
57057;SDS011;55017;52.848;6.748;2023-06-24T00:13:41;109.10;;;105.80;;
57057;SDS011;55017;52.848;6.748;2023-06-24T00:16:08;107.90;;;104.60;;
57057;SDS011;55017;52.848;6.748;2023-06-24T00:18:34;114.60;;;111.10;;
57057;SDS011;55017;52.848;6.748;2023-06-24T00:21:00;113.47;;;110.05;;
57057;SDS011;55017;52.848;6.748;2023-06-24T00:23:27;107.47;;;104.22;;
57057;SDS011;55017;52.848;6.748;2023-06-24T00:25:55;108.85;;;105.55;;
57057;SDS011;55017;52.848;6.748;2023-06-24T00:28:21;113.07;;;109.68;;
57057;SDS011;55017;52.848;6.748;2023-06-24T00:30:47;111.07;;;107.68;;
57057;SDS011;55017;52.848;6.748;2023-06-24T00:33:13;108.03;;;104.72;;
57057;SDS011;55017;52.848;6.748;2023-06-24T00:35:39;110.97;;;107.57;;
57057;SDS011;55017;52.848;6.748;2023-06-24T00:38:05;109.88;;;106.57;;
57057;SDS011;55017;52.848;6.748;2023-06-24T00:40:31;109.38;;;106.07;;
57057;SDS011;55017;52.848;6.748;2023-06-24T00:42:57;111.93;;;108.53;;
57057;SDS011;55017;52.848;6.748;2023-06-24T00:45:23;111.57;;;108.18;;
57057;SDS011;55017;52.848;6.748;2023-06-24T00:47:49;107.88;;;104.60;;
57057;SDS011;55017;52.848;6.748;2023-06-24T00:50:16;108.63;;;105.32;;
57057;SDS011;55017;52.848;6.748;2023-06-24T00:52:42;104.63;;;101.43;;
57057;SDS011;55017;52.848;6.748;2023-06-24T00:55:09;106.57;;;103.32;;
57057;SDS011;55017;52.848;6.748;2023-06-24T00:57:37;110.60;;;107.22;;
57057;SDS011;55017;52.848;6.748;2023-06-24T01:00:04;108.95;;;105.65;;
57057;SDS011;55017;52.848;6.748;2023-06-24T01:02:40;110.68;;;107.30;;
57057;SDS011;55017;52.848;6.748;2023-06-24T01:05:07;112.90;;;109.50;;
57057;SDS011;55017;52.848;6.748;2023-06-24T01:12:27;108.60;;;105.30;;
57057;SDS011;55017;52.848;6.748;2023-06-24T01:14:52;111.10;;;107.72;;
57057;SDS011;55017;52.848;6.748;2023-06-24T01:17:25;116.43;;;112.93;;
57057;SDS011;55017;52.848;6.748;2023-06-24T01:20:23;109.95;;;106.65;;
57057;SDS011;55017;52.848;6.748;2023-06-24T01:25:49;111.32;;;107.93;;
57057;SDS011;55017;52.848;6.748;2023-06-24T01:36:40;109.03;;;105.72;;
57057;SDS011;55017;52.848;6.748;2023-06-24T01:39:10;110.60;;;107.22;;
57057;SDS011;55017;52.848;6.748;2023-06-24T01:41:47;108.53;;;105.22;;
57057;SDS011;55017;52.848;6.748;2023-06-24T01:44:28;108.78;;;105.47;;
57057;SDS011;55017;52.848;6.748;2023-06-24T01:46:55;111.30;;;107.90;;
57057;SDS011;55017;52.848;6.748;2023-06-24T01:51:51;112.53;;;109.13;;
57057;SDS011;55017;52.848;6.748;2023-06-24T01:54:17;115.18;;;111.68;;
57057;SDS011;55017;52.848;6.748;2023-06-24T01:56:45;117.05;;;113.55;;
57057;SDS011;55017;52.848;6.748;2023-06-24T01:59:13;111.43;;;108.03;;
57057;SDS011;55017;52.848;6.748;2023-06-24T02:04:08;113.22;;;109.82;;
57057;SDS011;55017;52.848;6.748;2023-06-24T02:06:35;112.22;;;108.82;;
57057;SDS011;55017;52.848;6.748;2023-06-24T02:09:02;111.75;;;108.35;;
57057;SDS011;55017;52.848;6.748;2023-06-24T02:11:30;109.07;;;105.78;;
57057;SDS011;55017;52.848;6.748;2023-06-24T02:13:56;109.55;;;106.25;;
57057;SDS011;55017;52.848;6.748;2023-06-24T02:16:24;110.40;;;107.03;;
57057;SDS011;55017;52.848;6.748;2023-06-24T02:18:51;111.15;;;107.75;;
57057;SDS011;55017;52.848;6.748;2023-06-24T02:21:18;109.15;;;105.85;;
57057;SDS011;55017;52.848;6.748;2023-06-24T02:23:45;111.35;;;107.95;;
57057;SDS011;55017;52.848;6.748;2023-06-24T02:26:12;111.07;;;107.68;;
57057;SDS011;55017;52.848;6.748;2023-06-24T02:28:38;106.50;;;103.30;;
57057;SDS011;55017;52.848;6.748;2023-06-24T02:31:05;105.93;;;102.72;;
57057;SDS011;55017;52.848;6.748;2023-06-24T02:33:33;109.13;;;105.82;;
57057;SDS011;55017;52.848;6.748;2023-06-24T02:35:59;113.82;;;110.38;;
57057;SDS011;55017;52.848;6.748;2023-06-24T02:38:24;113.10;;;109.70;;
57057;SDS011;55017;52.848;6.748;2023-06-24T02:40:50;114.28;;;110.80;;
57057;SDS011;55017;52.848;6.748;2023-06-24T02:43:17;111.25;;;107.85;;
57057;SDS011;55017;52.848;6.748;2023-06-24T02:45:43;117.30;;;113.78;;
57057;SDS011;55017;52.848;6.748;2023-06-24T02:48:09;115.15;;;111.65;;
57057;SDS011;55017;52.848;6.748;2023-06-24T02:50:37;108.20;;;104.90;;
57057;SDS011;55017;52.848;6.748;2023-06-24T02:53:04;112.10;;;108.70;;
57057;SDS011;55017;52.848;6.748;2023-06-24T02:55:30;115.78;;;112.28;;
57057;SDS011;55017;52.848;6.748;2023-06-24T02:57:57;117.93;;;114.32;;
57057;SDS011;55017;52.848;6.748;2023-06-24T03:00:23;112.97;;;109.57;;
57057;SDS011;55017;52.848;6.748;2023-06-24T03:02:49;110.15;;;106.85;;
57057;SDS011;55017;52.848;6.748;2023-06-24T03:05:15;117.40;;;113.82;;
57057;SDS011;55017;52.848;6.748;2023-06-24T03:07:42;112.25;;;108.85;;
57057;SDS011;55017;52.848;6.748;2023-06-24T03:10:08;109.43;;;106.10;;
57057;SDS011;55017;52.848;6.748;2023-06-24T03:12:35;110.50;;;107.17;;
57057;SDS011;55017;52.848;6.748;2023-06-24T03:15:01;110.25;;;106.93;;
57057;SDS011;55017;52.848;6.748;2023-06-24T03:17:27;114.07;;;110.60;;
57057;SDS011;55017;52.848;6.748;2023-06-24T03:19:53;112.43;;;109.03;;
57057;SDS011;55017;52.848;6.748;2023-06-24T03:22:18;113.32;;;109.93;;
57057;SDS011;55017;52.848;6.748;2023-06-24T03:24:44;110.97;;;107.60;;
57057;SDS011;55017;52.848;6.748;2023-06-24T03:29:36;113.78;;;110.30;;
57057;SDS011;55017;52.848;6.748;2023-06-24T03:32:01;107.97;;;104.70;;
57057;SDS011;55017;52.848;6.748;2023-06-24T03:34:27;113.88;;;110.40;;
57057;SDS011;55017;52.848;6.748;2023-06-24T03:39:22;111.22;;;107.82;;
57057;SDS011;55017;52.848;6.748;2023-06-24T03:41:47;111.40;;;108.03;;
57057;SDS011;55017;52.848;6.748;2023-06-24T03:44:13;112.05;;;108.65;;
57057;SDS011;55017;52.848;6.748;2023-06-24T03:46:40;112.78;;;109.38;;
57057;SDS011;55017;52.848;6.748;2023-06-24T03:49:05;114.07;;;110.60;;
57057;SDS011;55017;52.848;6.748;2023-06-24T03:51:31;116.57;;;113.07;;
57057;SDS011;55017;52.848;6.748;2023-06-24T03:53:57;115.25;;;111.75;;
57057;SDS011;55017;52.848;6.748;2023-06-24T03:56:22;112.07;;;108.68;;
57057;SDS011;55017;52.848;6.748;2023-06-24T03:58:48;113.68;;;110.22;;
57057;SDS011;55017;52.848;6.748;2023-06-24T04:01:14;114.72;;;111.22;;
57057;SDS011;55017;52.848;6.748;2023-06-24T04:03:39;111.80;;;108.40;;
57057;SDS011;55017;52.848;6.748;2023-06-24T04:06:05;108.25;;;104.95;;
57057;SDS011;55017;52.848;6.748;2023-06-24T04:08:30;113.43;;;110.00;;
57057;SDS011;55017;52.848;6.748;2023-06-24T04:10:56;111.13;;;107.75;;
57057;SDS011;55017;52.848;6.748;2023-06-24T04:15:50;114.43;;;110.93;;
57057;SDS011;55017;52.848;6.748;2023-06-24T04:18:16;110.85;;;107.47;;
57057;SDS011;55017;52.848;6.748;2023-06-24T04:20:42;82.65;;;80.07;;
57057;SDS011;55017;52.848;6.748;2023-06-24T04:23:07;111.60;;;108.20;;
57057;SDS011;55017;52.848;6.748;2023-06-24T04:25:35;109.00;;;105.67;;
57057;SDS011;55017;52.848;6.748;2023-06-24T04:28:02;114.97;;;111.47;;
57057;SDS011;55017;52.848;6.748;2023-06-24T04:32:55;109.15;;;105.85;;
57057;SDS011;55017;52.848;6.748;2023-06-24T04:35:21;109.63;;;106.32;;
57057;SDS011;55017;52.848;6.748;2023-06-24T04:37:46;112.43;;;109.03;;
57057;SDS011;55017;52.848;6.748;2023-06-24T04:40:14;111.80;;;108.43;;
57057;SDS011;55017;52.848;6.748;2023-06-24T04:42:40;115.03;;;111.53;;
57057;SDS011;55017;52.848;6.748;2023-06-24T04:45:05;110.68;;;107.30;;
57057;SDS011;55017;52.848;6.748;2023-06-24T04:47:31;118.88;;;115.28;;
57057;SDS011;55017;52.848;6.748;2023-06-24T04:49:57;114.78;;;111.28;;
57057;SDS011;55017;52.848;6.748;2023-06-24T04:52:25;115.95;;;112.45;;
57057;SDS011;55017;52.848;6.748;2023-06-24T04:54:51;112.97;;;109.57;;
57057;SDS011;55017;52.848;6.748;2023-06-24T04:57:23;110.15;;;106.82;;
57057;SDS011;55017;52.848;6.748;2023-06-24T05:02:16;110.93;;;107.53;;
57057;SDS011;55017;52.848;6.748;2023-06-24T05:07:07;115.32;;;111.82;;
57057;SDS011;55017;52.848;6.748;2023-06-24T05:09:33;113.00;;;109.60;;
57057;SDS011;55017;52.848;6.748;2023-06-24T05:11:58;113.75;;;110.32;;
57057;SDS011;55017;52.848;6.748;2023-06-24T05:14:24;112.63;;;109.22;;
57057;SDS011;55017;52.848;6.748;2023-06-24T05:16:50;111.30;;;107.90;;
57057;SDS011;55017;52.848;6.748;2023-06-24T05:19:15;109.60;;;106.30;;
57057;SDS011;55017;52.848;6.748;2023-06-24T05:21:41;115.80;;;112.30;;
57057;SDS011;55017;52.848;6.748;2023-06-24T05:24:07;110.95;;;107.55;;
57057;SDS011;55017;52.848;6.748;2023-06-24T05:26:32;107.22;;;103.93;;
57057;SDS011;55017;52.848;6.748;2023-06-24T05:28:58;113.93;;;110.45;;
57057;SDS011;55017;52.848;6.748;2023-06-24T05:31:23;111.83;;;108.43;;
57057;SDS011;55017;52.848;6.748;2023-06-24T05:36:14;110.72;;;107.35;;
57057;SDS011;55017;52.848;6.748;2023-06-24T05:38:40;108.38;;;105.07;;
57057;SDS011;55017;52.848;6.748;2023-06-24T05:41:06;116.57;;;113.07;;
57057;SDS011;55017;52.848;6.748;2023-06-24T05:43:31;116.43;;;112.93;;
57057;SDS011;55017;52.848;6.748;2023-06-24T05:45:57;113.70;;;110.28;;
57057;SDS011;55017;52.848;6.748;2023-06-24T05:48:22;116.75;;;113.22;;
57057;SDS011;55017;52.848;6.748;2023-06-24T05:50:48;115.20;;;111.70;;
57057;SDS011;55017;52.848;6.748;2023-06-24T05:53:13;114.13;;;110.68;;
57057;SDS011;55017;52.848;6.748;2023-06-24T05:55:39;113.22;;;109.80;;
57057;SDS011;55017;52.848;6.748;2023-06-24T05:58:05;106.90;;;103.65;;
57057;SDS011;55017;52.848;6.748;2023-06-24T06:00:30;110.55;;;107.20;;
57057;SDS011;55017;52.848;6.748;2023-06-24T06:02:56;112.80;;;109.40;;
57057;SDS011;55017;52.848;6.748;2023-06-24T06:05:21;112.05;;;108.65;;
57057;SDS011;55017;52.848;6.748;2023-06-24T06:07:47;111.70;;;108.30;;
57057;SDS011;55017;52.848;6.748;2023-06-24T06:10:13;113.82;;;110.38;;
57057;SDS011;55017;52.848;6.748;2023-06-24T06:12:42;111.65;;;108.28;;
57057;SDS011;55017;52.848;6.748;2023-06-24T06:15:08;114.10;;;110.60;;
57057;SDS011;55017;52.848;6.748;2023-06-24T06:17:34;114.22;;;110.78;;
57057;SDS011;55017;52.848;6.748;2023-06-24T06:20:00;111.93;;;108.53;;
57057;SDS011;55017;52.848;6.748;2023-06-24T06:22:25;112.28;;;108.88;;
57057;SDS011;55017;52.848;6.748;2023-06-24T06:24:51;111.63;;;108.22;;
57057;SDS011;55017;52.848;6.748;2023-06-24T06:27:16;108.80;;;105.50;;
57057;SDS011;55017;52.848;6.748;2023-06-24T06:29:42;110.85;;;107.47;;
57057;SDS011;55017;52.848;6.748;2023-06-24T06:32:08;110.50;;;107.15;;
57057;SDS011;55017;52.848;6.748;2023-06-24T06:34:33;110.32;;;107.03;;
57057;SDS011;55017;52.848;6.748;2023-06-24T06:36:59;111.95;;;108.55;;
57057;SDS011;55017;52.848;6.748;2023-06-24T06:39:24;108.72;;;105.43;;
57057;SDS011;55017;52.848;6.748;2023-06-24T06:41:50;109.15;;;105.85;;
57057;SDS011;55017;52.848;6.748;2023-06-24T06:44:16;113.32;;;109.90;;
57057;SDS011;55017;52.848;6.748;2023-06-24T06:46:42;113.95;;;110.50;;
57057;SDS011;55017;52.848;6.748;2023-06-24T06:49:07;107.53;;;104.25;;
57057;SDS011;55017;52.848;6.748;2023-06-24T06:51:33;116.53;;;113.03;;
57057;SDS011;55017;52.848;6.748;2023-06-24T06:54:00;111.95;;;108.55;;
57057;SDS011;55017;52.848;6.748;2023-06-24T06:56:25;113.25;;;109.85;;
57057;SDS011;55017;52.848;6.748;2023-06-24T06:58:51;109.43;;;106.13;;
57057;SDS011;55017;52.848;6.748;2023-06-24T07:01:17;108.35;;;105.05;;
57057;SDS011;55017;52.848;6.748;2023-06-24T07:03:43;110.68;;;107.32;;
57057;SDS011;55017;52.848;6.748;2023-06-24T07:06:09;109.65;;;106.35;;
57057;SDS011;55017;52.848;6.748;2023-06-24T07:08:34;109.18;;;105.88;;
57057;SDS011;55017;52.848;6.748;2023-06-24T07:13:26;112.90;;;109.50;;
57057;SDS011;55017;52.848;6.748;2023-06-24T07:15:52;110.45;;;107.07;;
57057;SDS011;55017;52.848;6.748;2023-06-24T07:18:17;109.40;;;106.10;;
57057;SDS011;55017;52.848;6.748;2023-06-24T07:20:43;110.78;;;107.40;;
57057;SDS011;55017;52.848;6.748;2023-06-24T07:23:08;109.77;;;106.47;;
57057;SDS011;55017;52.848;6.748;2023-06-24T07:28:00;106.03;;;102.82;;
57057;SDS011;55017;52.848;6.748;2023-06-24T07:30:26;105.97;;;102.78;;
57057;SDS011;55017;52.848;6.748;2023-06-24T07:32:51;102.85;;;99.75;;
57057;SDS011;55017;52.848;6.748;2023-06-24T07:35:17;105.82;;;102.63;;
57057;SDS011;55017;52.848;6.748;2023-06-24T07:37:44;108.28;;;104.97;;
57057;SDS011;55017;52.848;6.748;2023-06-24T07:40:10;104.97;;;101.80;;
57057;SDS011;55017;52.848;6.748;2023-06-24T07:42:35;95.40;;;92.50;;
57057;SDS011;55017;52.848;6.748;2023-06-24T07:47:27;108.28;;;104.97;;
57057;SDS011;55017;52.848;6.748;2023-06-24T07:49:52;107.18;;;103.97;;
57057;SDS011;55017;52.848;6.748;2023-06-24T07:52:18;110.50;;;107.18;;
57057;SDS011;55017;52.848;6.748;2023-06-24T07:54:43;107.15;;;103.93;;
57057;SDS011;55017;52.848;6.748;2023-06-24T07:57:09;108.97;;;105.68;;
57057;SDS011;55017;52.848;6.748;2023-06-24T07:59:35;107.25;;;104.00;;
57057;SDS011;55017;52.848;6.748;2023-06-24T08:02:00;108.88;;;105.57;;
57057;SDS011;55017;52.848;6.748;2023-06-24T08:04:26;100.57;;;97.57;;
57057;SDS011;55017;52.848;6.748;2023-06-24T08:06:51;103.93;;;100.82;;
57057;SDS011;55017;52.848;6.748;2023-06-24T08:09:17;105.15;;;101.95;;
57057;SDS011;55017;52.848;6.748;2023-06-24T08:11:43;103.38;;;100.28;;
57057;SDS011;55017;52.848;6.748;2023-06-24T08:14:09;105.30;;;102.10;;
57057;SDS011;55017;52.848;6.748;2023-06-24T08:16:34;102.60;;;99.50;;
57057;SDS011;55017;52.848;6.748;2023-06-24T08:19:00;102.13;;;99.03;;
57057;SDS011;55017;52.848;6.748;2023-06-24T08:21:25;98.60;;;95.60;;
57057;SDS011;55017;52.848;6.748;2023-06-24T08:23:51;99.20;;;96.20;;
57057;SDS011;55017;52.848;6.748;2023-06-24T08:26:17;105.18;;;101.97;;
57057;SDS011;55017;52.848;6.748;2023-06-24T08:28:45;105.50;;;102.30;;
57057;SDS011;55017;52.848;6.748;2023-06-24T08:31:11;109.05;;;105.75;;
57057;SDS011;55017;52.848;6.748;2023-06-24T08:33:37;106.93;;;103.72;;
57057;SDS011;55017;52.848;6.748;2023-06-24T08:36:02;96.67;;;93.77;;
57057;SDS011;55017;52.848;6.748;2023-06-24T08:38:28;100.38;;;97.38;;
57057;SDS011;55017;52.848;6.748;2023-06-24T08:40:53;93.27;;;90.47;;
57057;SDS011;55017;52.848;6.748;2023-06-24T08:43:20;87.13;;;84.43;;
57057;SDS011;55017;52.848;6.748;2023-06-24T08:45:46;95.68;;;92.78;;
57057;SDS011;55017;52.848;6.748;2023-06-24T08:48:12;101.53;;;98.43;;
57057;SDS011;55017;52.848;6.748;2023-06-24T08:50:43;100.65;;;97.65;;
57057;SDS011;55017;52.848;6.748;2023-06-24T08:53:11;102.43;;;99.32;;
57057;SDS011;55017;52.848;6.748;2023-06-24T08:55:43;104.22;;;101.13;;
57057;SDS011;55017;52.848;6.748;2023-06-24T08:58:10;104.75;;;101.65;;
57057;SDS011;55017;52.848;6.748;2023-06-24T09:00:37;106.22;;;103.03;;
57057;SDS011;55017;52.848;6.748;2023-06-24T09:03:02;108.35;;;105.10;;
57057;SDS011;55017;52.848;6.748;2023-06-24T09:05:28;106.68;;;103.47;;
57057;SDS011;55017;52.848;6.748;2023-06-24T09:07:53;95.70;;;92.80;;
57057;SDS011;55017;52.848;6.748;2023-06-24T09:10:28;91.03;;;88.23;;
57057;SDS011;55017;52.848;6.748;2023-06-24T09:12:55;98.93;;;95.93;;
57057;SDS011;55017;52.848;6.748;2023-06-24T09:15:21;100.75;;;97.75;;
57057;SDS011;55017;52.848;6.748;2023-06-24T09:17:46;104.47;;;101.35;;
57057;SDS011;55017;52.848;6.748;2023-06-24T09:20:12;105.22;;;102.05;;
57057;SDS011;55017;52.848;6.748;2023-06-24T09:22:40;103.88;;;100.78;;
57057;SDS011;55017;52.848;6.748;2023-06-24T09:25:06;93.05;;;90.25;;
57057;SDS011;55017;52.848;6.748;2023-06-24T09:27:32;100.25;;;97.25;;
57057;SDS011;55017;52.848;6.748;2023-06-24T09:29:58;89.25;;;86.55;;
57057;SDS011;55017;52.848;6.748;2023-06-24T09:32:30;98.80;;;95.80;;
57057;SDS011;55017;52.848;6.748;2023-06-24T09:34:56;101.25;;;98.15;;
57057;SDS011;55017;52.848;6.748;2023-06-24T09:37:22;91.28;;;88.47;;
57057;SDS011;55017;52.848;6.748;2023-06-24T09:39:48;98.13;;;95.13;;
57057;SDS011;55017;52.848;6.748;2023-06-24T09:44:39;100.93;;;97.93;;
57057;SDS011;55017;52.848;6.748;2023-06-24T09:47:05;102.60;;;99.50;;
57057;SDS011;55017;52.848;6.748;2023-06-24T09:49:31;93.20;;;90.40;;
57057;SDS011;55017;52.848;6.748;2023-06-24T09:51:58;98.90;;;95.90;;
57057;SDS011;55017;52.848;6.748;2023-06-24T09:56:52;102.55;;;99.45;;
57057;SDS011;55017;52.848;6.748;2023-06-24T10:01:45;104.07;;;100.97;;
57057;SDS011;55017;52.848;6.748;2023-06-24T10:04:15;103.63;;;100.53;;
57057;SDS011;55017;52.848;6.748;2023-06-24T10:06:41;90.32;;;87.63;;
57057;SDS011;55017;52.848;6.748;2023-06-24T10:09:07;84.65;;;82.05;;
57057;SDS011;55017;52.848;6.748;2023-06-24T10:11:33;92.65;;;89.85;;
57057;SDS011;55017;52.848;6.748;2023-06-24T10:13:59;88.13;;;85.43;;
57057;SDS011;55017;52.848;6.748;2023-06-24T10:16:25;95.93;;;93.03;;
57057;SDS011;55017;52.848;6.748;2023-06-24T10:18:50;84.10;;;81.50;;
57057;SDS011;55017;52.848;6.748;2023-06-24T10:21:16;95.07;;;92.18;;
57057;SDS011;55017;52.848;6.748;2023-06-24T10:26:35;98.43;;;95.43;;
57057;SDS011;55017;52.848;6.748;2023-06-24T10:47:36;91.03;;;88.23;;
57057;SDS011;55017;52.848;6.748;2023-06-24T10:50:03;96.00;;;93.10;;
57057;SDS011;55017;52.848;6.748;2023-06-24T10:52:30;98.13;;;95.15;;
57057;SDS011;55017;52.848;6.748;2023-06-24T10:54:56;99.85;;;96.85;;
57057;SDS011;55017;52.848;6.748;2023-06-24T10:57:23;100.72;;;97.72;;
57057;SDS011;55017;52.848;6.748;2023-06-24T11:02:17;102.68;;;99.57;;
57057;SDS011;55017;52.848;6.748;2023-06-24T11:04:50;102.53;;;99.43;;
57057;SDS011;55017;52.848;6.748;2023-06-24T11:07:17;101.63;;;98.57;;
57057;SDS011;55017;52.848;6.748;2023-06-24T11:09:55;101.75;;;98.65;;
57057;SDS011;55017;52.848;6.748;2023-06-24T11:12:26;102.95;;;99.85;;
57057;SDS011;55017;52.848;6.748;2023-06-24T11:17:23;101.55;;;98.45;;
57057;SDS011;55017;52.848;6.748;2023-06-24T11:19:49;101.97;;;98.88;;
57057;SDS011;55017;52.848;6.748;2023-06-24T11:22:14;100.60;;;97.60;;
57057;SDS011;55017;52.848;6.748;2023-06-24T11:24:40;100.75;;;97.75;;
57057;SDS011;55017;52.848;6.748;2023-06-24T11:27:06;99.50;;;96.50;;
57057;SDS011;55017;52.848;6.748;2023-06-24T11:29:32;98.07;;;95.07;;
57057;SDS011;55017;52.848;6.748;2023-06-24T11:32:00;99.53;;;96.53;;
57057;SDS011;55017;52.848;6.748;2023-06-24T11:34:26;100.68;;;97.68;;
57057;SDS011;55017;52.848;6.748;2023-06-24T11:36:52;97.78;;;94.80;;
57057;SDS011;55017;52.848;6.748;2023-06-24T11:39:24;87.50;;;84.80;;
57057;SDS011;55017;52.848;6.748;2023-06-24T11:41:53;83.43;;;80.82;;
57057;SDS011;55017;52.848;6.748;2023-06-24T11:44:23;89.55;;;86.85;;
57057;SDS011;55017;52.848;6.748;2023-06-24T11:46:49;91.97;;;89.18;;
57057;SDS011;55017;52.848;6.748;2023-06-24T11:51:47;97.78;;;94.82;;
57057;SDS011;55017;52.848;6.748;2023-06-24T11:56:40;98.63;;;95.63;;
57057;SDS011;55017;52.848;6.748;2023-06-24T11:59:14;98.50;;;95.50;;
57057;SDS011;55017;52.848;6.748;2023-06-24T12:01:42;97.72;;;94.78;;
57057;SDS011;55017;52.848;6.748;2023-06-24T12:04:12;96.97;;;94.07;;
57057;SDS011;55017;52.848;6.748;2023-06-24T12:11:30;100.10;;;97.10;;
57057;SDS011;55017;52.848;6.748;2023-06-24T12:13:55;99.43;;;96.43;;
57057;SDS011;55017;52.848;6.748;2023-06-24T12:16:21;88.78;;;86.07;;
57057;SDS011;55017;52.848;6.748;2023-06-24T12:18:48;91.18;;;88.38;;
57057;SDS011;55017;52.848;6.748;2023-06-24T12:21:13;97.35;;;94.45;;
57057;SDS011;55017;52.848;6.748;2023-06-24T12:23:39;95.28;;;92.38;;
57057;SDS011;55017;52.848;6.748;2023-06-24T12:26:04;98.82;;;95.82;;
57057;SDS011;55017;52.848;6.748;2023-06-24T12:28:30;97.18;;;94.28;;
57057;SDS011;55017;52.848;6.748;2023-06-24T12:30:56;97.88;;;94.93;;
57057;SDS011;55017;52.848;6.748;2023-06-24T12:33:21;100.03;;;97.03;;
57057;SDS011;55017;52.848;6.748;2023-06-24T12:35:48;96.78;;;93.88;;
57057;SDS011;55017;52.848;6.748;2023-06-24T12:40:41;101.72;;;98.65;;
57057;SDS011;55017;52.848;6.748;2023-06-24T12:43:06;98.05;;;95.05;;
57057;SDS011;55017;52.848;6.748;2023-06-24T12:45:32;98.15;;;95.15;;
57057;SDS011;55017;52.848;6.748;2023-06-24T12:47:57;97.97;;;95.00;;
57057;SDS011;55017;52.848;6.748;2023-06-24T12:50:24;99.43;;;96.43;;
57057;SDS011;55017;52.848;6.748;2023-06-24T12:52:50;89.43;;;86.73;;
57057;SDS011;55017;52.848;6.748;2023-06-24T12:55:15;92.95;;;90.15;;
57057;SDS011;55017;52.848;6.748;2023-06-24T12:57:41;98.55;;;95.55;;
57057;SDS011;55017;52.848;6.748;2023-06-24T13:00:07;97.78;;;94.80;;
57057;SDS011;55017;52.848;6.748;2023-06-24T13:02:34;97.47;;;94.57;;
57057;SDS011;55017;52.848;6.748;2023-06-24T13:05:00;99.03;;;96.03;;
57057;SDS011;55017;52.848;6.748;2023-06-24T13:07:26;89.50;;;86.80;;
57057;SDS011;55017;52.848;6.748;2023-06-24T13:09:51;93.75;;;90.95;;
57057;SDS011;55017;52.848;6.748;2023-06-24T13:12:17;85.70;;;83.10;;
57057;SDS011;55017;52.848;6.748;2023-06-24T13:14:42;94.43;;;91.53;;
57057;SDS011;55017;52.848;6.748;2023-06-24T13:17:08;95.30;;;92.40;;
57057;SDS011;55017;52.848;6.748;2023-06-24T13:19:34;95.78;;;92.88;;
57057;SDS011;55017;52.848;6.748;2023-06-24T13:21:59;85.00;;;82.40;;
57057;SDS011;55017;52.848;6.748;2023-06-24T13:24:25;89.60;;;86.90;;
57057;SDS011;55017;52.848;6.748;2023-06-24T13:26:51;95.00;;;92.10;;
57057;SDS011;55017;52.848;6.748;2023-06-24T13:29:16;96.55;;;93.65;;
57057;SDS011;55017;52.848;6.748;2023-06-24T13:31:44;95.80;;;92.90;;
57057;SDS011;55017;52.848;6.748;2023-06-24T13:34:10;97.20;;;94.28;;
57057;SDS011;55017;52.848;6.748;2023-06-24T13:36:36;97.68;;;94.78;;
57057;SDS011;55017;52.848;6.748;2023-06-24T13:39:04;95.75;;;92.85;;
57057;SDS011;55017;52.848;6.748;2023-06-24T13:41:33;87.90;;;85.20;;
57057;SDS011;55017;52.848;6.748;2023-06-24T13:44:00;94.18;;;91.35;;
57057;SDS011;55017;52.848;6.748;2023-06-24T13:46:29;94.57;;;91.68;;
57057;SDS011;55017;52.848;6.748;2023-06-24T13:48:56;88.13;;;85.43;;
57057;SDS011;55017;52.848;6.748;2023-06-24T13:51:23;83.90;;;81.30;;
57057;SDS011;55017;52.848;6.748;2023-06-24T13:53:50;89.40;;;86.70;;
57057;SDS011;55017;52.848;6.748;2023-06-24T13:56:17;97.90;;;94.93;;
57057;SDS011;55017;52.848;6.748;2023-06-24T14:01:09;97.18;;;94.28;;
57057;SDS011;55017;52.848;6.748;2023-06-24T14:03:35;96.68;;;93.78;;
57057;SDS011;55017;52.848;6.748;2023-06-24T14:06:00;98.38;;;95.43;;
57057;SDS011;55017;52.848;6.748;2023-06-24T14:08:27;97.18;;;94.28;;
57057;SDS011;55017;52.848;6.748;2023-06-24T14:10:54;91.95;;;89.15;;
57057;SDS011;55017;52.848;6.748;2023-06-24T14:13:21;96.22;;;93.32;;
57057;SDS011;55017;52.848;6.748;2023-06-24T14:15:47;96.55;;;93.65;;
57057;SDS011;55017;52.848;6.748;2023-06-24T14:18:12;91.00;;;88.20;;
57057;SDS011;55017;52.848;6.748;2023-06-24T14:20:38;86.57;;;83.97;;
57057;SDS011;55017;52.848;6.748;2023-06-24T14:23:04;94.53;;;91.65;;
57057;SDS011;55017;52.848;6.748;2023-06-24T14:25:30;94.93;;;92.03;;
57057;SDS011;55017;52.848;6.748;2023-06-24T14:27:56;88.53;;;85.82;;
57057;SDS011;55017;52.848;6.748;2023-06-24T14:30:22;84.37;;;81.77;;
57057;SDS011;55017;52.848;6.748;2023-06-24T14:32:47;91.03;;;88.22;;
57057;SDS011;55017;52.848;6.748;2023-06-24T14:35:13;95.70;;;92.80;;
57057;SDS011;55017;52.848;6.748;2023-06-24T14:37:38;88.18;;;85.47;;
57057;SDS011;55017;52.848;6.748;2023-06-24T14:40:05;93.32;;;90.53;;
57057;SDS011;55017;52.848;6.748;2023-06-24T14:42:31;96.63;;;93.72;;
57057;SDS011;55017;52.848;6.748;2023-06-24T14:44:57;97.35;;;94.45;;
57057;SDS011;55017;52.848;6.748;2023-06-24T14:49:48;101.00;;;98.00;;
57057;SDS011;55017;52.848;6.748;2023-06-24T14:54:39;103.07;;;99.97;;
57057;SDS011;55017;52.848;6.748;2023-06-24T14:57:04;100.55;;;97.55;;
57057;SDS011;55017;52.848;6.748;2023-06-24T14:59:30;100.55;;;97.55;;
57057;SDS011;55017;52.848;6.748;2023-06-24T15:01:55;100.13;;;97.13;;
57057;SDS011;55017;52.848;6.748;2023-06-24T15:04:21;100.30;;;97.30;;
57057;SDS011;55017;52.848;6.748;2023-06-24T15:06:46;100.45;;;97.45;;
57057;SDS011;55017;52.848;6.748;2023-06-24T15:09:12;100.63;;;97.63;;
57057;SDS011;55017;52.848;6.748;2023-06-24T15:11:38;103.43;;;100.32;;
57057;SDS011;55017;52.848;6.748;2023-06-24T15:14:03;100.07;;;97.07;;
57057;SDS011;55017;52.848;6.748;2023-06-24T15:18:54;102.35;;;99.25;;
57057;SDS011;55017;52.848;6.748;2023-06-24T15:21:20;101.63;;;98.53;;
57057;SDS011;55017;52.848;6.748;2023-06-24T15:23:46;101.80;;;98.72;;
57057;SDS011;55017;52.848;6.748;2023-06-24T15:26:11;104.05;;;100.95;;
57057;SDS011;55017;52.848;6.748;2023-06-24T15:28:37;100.22;;;97.22;;
57057;SDS011;55017;52.848;6.748;2023-06-24T15:31:03;102.30;;;99.20;;
57057;SDS011;55017;52.848;6.748;2023-06-24T15:33:28;101.68;;;98.57;;
57057;SDS011;55017;52.848;6.748;2023-06-24T15:35:54;102.70;;;99.60;;
57057;SDS011;55017;52.848;6.748;2023-06-24T15:38:20;101.80;;;98.70;;
57057;SDS011;55017;52.848;6.748;2023-06-24T15:40:46;102.45;;;99.35;;
57057;SDS011;55017;52.848;6.748;2023-06-24T15:43:11;102.20;;;99.10;;